»·PEaware :: N564GT KTEX-KCEZ

N564GT :: KTEX-KCEZ

FLIGHT INFORMATION

Flight Status: Arrived
Operator: Privately registered:
United States
More flights under this callsign
Pilot: Jeremey H. (44477)
Aircraft: PIPER PA-24 COMMANCHE
(PA24)
More flights by this aircraft type
Origin: KTEX Telluride Regl
United States
Destination: KCEZ Cortez Mun
United States
More flights between these airports :: More routes between these airports
Route: ETL
File this flight plan on PilotEdge
Remarks:
Altitude:
(Current/Filed)
10,000ft
Speed:
(Current/Filed)
130kts
Departed: 27-Aug-23 09:43 AM
Arrived: 27-Aug-23 10:18 AM
Distance/Time
Traveled:
52nm/0:35
Distance/Time
To Go:
Arrived

Flight Plot

Page will automatically refresh every two minutes.

Flight plan parsing failed; only flown route is shown


Map Options




Map Legend


Flown Route
Filed Route
Departure Airport
Arrival Airport
Navaid (VOR, NDB)
Fix

Horizontal Profiles

Position Reports

Time Latitude Longitude Heading Altitude Ground
Speed
27-Aug-23 09:19 37.954381 -107.902686 277 9052ft 0kts
27-Aug-23 09:20 37.954381 -107.902686 277 9052ft 0kts
27-Aug-23 09:21 37.954381 -107.902686 277 9052ft 0kts
27-Aug-23 09:22 37.954381 -107.902686 277 9052ft 0kts
27-Aug-23 09:23 37.954381 -107.902686 277 9052ft 0kts
27-Aug-23 09:24 37.954381 -107.902686 277 9052ft 0kts
27-Aug-23 09:25 37.954381 -107.902686 277 9052ft 0kts
27-Aug-23 09:26 37.954381 -107.902686 277 9052ft 0kts
27-Aug-23 09:27 37.954381 -107.902686 277 9052ft 0kts
27-Aug-23 09:28 37.954381 -107.902686 277 9052ft 0kts
27-Aug-23 09:29 37.954381 -107.902686 277 9052ft 0kts
27-Aug-23 09:30 37.954381 -107.902686 277 9052ft 0kts
27-Aug-23 09:31 37.954381 -107.902686 277 9052ft 0kts
27-Aug-23 09:32 37.954381 -107.902686 277 9052ft 0kts
27-Aug-23 09:33 37.954381 -107.902686 277 9052ft 0kts
27-Aug-23 09:34 37.954381 -107.902686 277 9052ft 0kts
27-Aug-23 09:35 37.954381 -107.902686 277 9052ft 0kts
27-Aug-23 09:36 37.954077 -107.902696 165 9052ft 6kts
27-Aug-23 09:37 37.952932 -107.899296 105 9058ft 11kts
27-Aug-23 09:38 37.952543 -107.897061 107 9068ft 0kts
27-Aug-23 09:39 37.952543 -107.897060 107 9068ft 0kts
27-Aug-23 09:40 37.952300 -107.896732 167 9070ft 0kts
27-Aug-23 09:41 37.952300 -107.896732 167 9070ft 0kts
27-Aug-23 09:42 37.952091 -107.900765 284 9049ft 57kts
27-Aug-23 09:43 37.957030 -107.929305 275 9538ft 88kts
27-Aug-23 09:44 37.961987 -107.959109 280 10087ft 87kts
27-Aug-23 09:45 37.973485 -107.986983 299 10548ft 92kts
27-Aug-23 09:46 37.987816 -108.017877 301 10812ft 117kts
27-Aug-23 09:47 38.003299 -108.058889 283 10754ft 138kts
27-Aug-23 09:48 38.011195 -108.105923 283 10702ft 136kts
27-Aug-23 09:50 38.020014 -108.153088 282 10640ft 137kts
27-Aug-23 09:51 38.028804 -108.199796 280 10580ft 137kts
27-Aug-23 09:52 38.035507 -108.247421 251 10523ft 138kts
27-Aug-23 09:53 38.006684 -108.278012 212 10496ft 136kts
27-Aug-23 09:54 37.973089 -108.299816 204 10475ft 134kts
27-Aug-23 09:55 37.939387 -108.320471 207 10441ft 135kts
27-Aug-23 09:56 37.904602 -108.336976 198 10419ft 134kts
27-Aug-23 09:57 37.869125 -108.351422 200 10394ft 135kts
27-Aug-23 09:58 37.833756 -108.367275 201 10398ft 134kts
27-Aug-23 09:59 37.798130 -108.384349 202 10395ft 134kts
27-Aug-23 10:00 37.762629 -108.399144 202 10395ft 135kts
27-Aug-23 10:01 37.727092 -108.415319 202 10396ft 134kts
27-Aug-23 10:02 37.692279 -108.430911 201 10616ft 117kts
27-Aug-23 10:03 37.661225 -108.444439 198 10527ft 120kts
27-Aug-23 10:04 37.629704 -108.457063 199 10250ft 118kts
27-Aug-23 10:05 37.598509 -108.470842 200 9927ft 119kts
27-Aug-23 10:06 37.567281 -108.485113 197 9557ft 120kts
27-Aug-23 10:07 37.536223 -108.498616 198 9259ft 119kts
27-Aug-23 10:08 37.505082 -108.511995 201 8956ft 117kts
27-Aug-23 10:09 37.474078 -108.525185 199 8688ft 117kts
27-Aug-23 10:10 37.443027 -108.538137 196 8396ft 118kts
27-Aug-23 10:11 37.411909 -108.550338 196 8214ft 117kts
27-Aug-23 10:12 37.381790 -108.565673 216 7992ft 116kts
27-Aug-23 10:13 37.357880 -108.590677 223 7843ft 109kts
27-Aug-23 10:13 37.339228 -108.613068 225 7629ft 111kts
27-Aug-23 10:15 37.311631 -108.642421 223 7404ft 111kts
27-Aug-23 10:16 37.288670 -108.664463 199 6952ft 94kts
27-Aug-23 10:17 37.287591 -108.645180 41 6199ft 87kts
27-Aug-23 10:18 37.299854 -108.632449 325 5914ft 14kts
27-Aug-23 10:18 37.302089 -108.631434 312 5915ft 0kts
27-Aug-23 10:19 37.302089 -108.631434 312 5915ft 0kts

Navigation Log

Ident Type
Flight plan parsing failed, navigation log unavailable